sensor_id;sensor_type;location;lat;lon;timestamp;P1;durP1;ratioP1;P2;durP2;ratioP2
9138;SDS011;4604;48.616;9.548;2022-08-11T00:01:46;2.97;;;2.67;;
9138;SDS011;4604;48.616;9.548;2022-08-11T00:04:16;5.13;;;2.90;;
9138;SDS011;4604;48.616;9.548;2022-08-11T00:06:45;3.17;;;2.75;;
9138;SDS011;4604;48.616;9.548;2022-08-11T00:09:14;3.70;;;2.67;;
9138;SDS011;4604;48.616;9.548;2022-08-11T00:11:44;2.67;;;2.47;;
9138;SDS011;4604;48.616;9.548;2022-08-11T00:14:14;4.20;;;3.05;;
9138;SDS011;4604;48.616;9.548;2022-08-11T00:16:51;3.38;;;2.80;;
9138;SDS011;4604;48.616;9.548;2022-08-11T00:19:21;3.25;;;2.85;;
9138;SDS011;4604;48.616;9.548;2022-08-11T00:21:49;3.25;;;2.90;;
9138;SDS011;4604;48.616;9.548;2022-08-11T00:24:17;3.25;;;2.30;;
9138;SDS011;4604;48.616;9.548;2022-08-11T00:26:47;6.00;;;2.72;;
9138;SDS011;4604;48.616;9.548;2022-08-11T00:29:16;3.42;;;2.80;;
9138;SDS011;4604;48.616;9.548;2022-08-11T00:31:43;3.20;;;2.90;;
9138;SDS011;4604;48.616;9.548;2022-08-11T00:34:15;3.45;;;2.88;;
9138;SDS011;4604;48.616;9.548;2022-08-11T00:36:46;2.67;;;2.47;;
9138;SDS011;4604;48.616;9.548;2022-08-11T00:39:15;3.08;;;2.80;;
9138;SDS011;4604;48.616;9.548;2022-08-11T00:41:45;3.10;;;2.83;;
9138;SDS011;4604;48.616;9.548;2022-08-11T00:44:28;4.43;;;3.08;;
9138;SDS011;4604;48.616;9.548;2022-08-11T00:47:08;3.92;;;2.70;;
9138;SDS011;4604;48.616;9.548;2022-08-11T00:49:44;3.80;;;2.70;;
9138;SDS011;4604;48.616;9.548;2022-08-11T00:52:25;3.45;;;2.90;;
9138;SDS011;4604;48.616;9.548;2022-08-11T01:01:25;4.20;;;2.92;;
9138;SDS011;4604;48.616;9.548;2022-08-11T01:04:18;3.10;;;2.75;;
9138;SDS011;4604;48.616;9.548;2022-08-11T01:10:05;3.55;;;2.53;;
9138;SDS011;4604;48.616;9.548;2022-08-11T01:12:42;3.20;;;2.90;;
9138;SDS011;4604;48.616;9.548;2022-08-11T01:18:39;5.68;;;3.50;;
9138;SDS011;4604;48.616;9.548;2022-08-11T01:24:51;6.65;;;3.03;;
9138;SDS011;4604;48.616;9.548;2022-08-11T01:30:55;5.93;;;2.83;;
9138;SDS011;4604;48.616;9.548;2022-08-11T01:37:01;3.38;;;3.08;;
9138;SDS011;4604;48.616;9.548;2022-08-11T01:46:14;5.93;;;3.45;;
9138;SDS011;4604;48.616;9.548;2022-08-11T01:48:49;3.47;;;3.03;;
9138;SDS011;4604;48.616;9.548;2022-08-11T01:51:32;3.38;;;3.08;;
9138;SDS011;4604;48.616;9.548;2022-08-11T01:54:16;4.65;;;3.30;;
9138;SDS011;4604;48.616;9.548;2022-08-11T01:56:52;4.95;;;3.35;;
9138;SDS011;4604;48.616;9.548;2022-08-11T01:59:33;3.65;;;3.17;;
9138;SDS011;4604;48.616;9.548;2022-08-11T02:02:33;4.43;;;3.13;;
9138;SDS011;4604;48.616;9.548;2022-08-11T02:08:27;7.18;;;3.63;;
9138;SDS011;4604;48.616;9.548;2022-08-11T02:11:14;4.90;;;3.30;;
9138;SDS011;4604;48.616;9.548;2022-08-11T02:13:58;3.35;;;3.05;;
9138;SDS011;4604;48.616;9.548;2022-08-11T02:16:41;8.70;;;3.70;;
9138;SDS011;4604;48.616;9.548;2022-08-11T02:19:32;3.28;;;2.97;;
9138;SDS011;4604;48.616;9.548;2022-08-11T02:22:22;5.18;;;3.30;;
9138;SDS011;4604;48.616;9.548;2022-08-11T02:25:16;3.33;;;3.03;;
9138;SDS011;4604;48.616;9.548;2022-08-11T02:27:52;3.30;;;3.00;;
9138;SDS011;4604;48.616;9.548;2022-08-11T02:30:24;4.22;;;3.35;;
9138;SDS011;4604;48.616;9.548;2022-08-11T02:33:05;5.68;;;3.33;;
9138;SDS011;4604;48.616;9.548;2022-08-11T02:35:49;5.00;;;2.83;;
9138;SDS011;4604;48.616;9.548;2022-08-11T02:38:24;3.80;;;3.35;;
9138;SDS011;4604;48.616;9.548;2022-08-11T02:40:59;3.58;;;3.28;;
9138;SDS011;4604;48.616;9.548;2022-08-11T02:43:58;4.90;;;3.17;;
9138;SDS011;4604;48.616;9.548;2022-08-11T02:46:35;3.28;;;2.97;;
9138;SDS011;4604;48.616;9.548;2022-08-11T02:49:25;3.50;;;3.17;;
9138;SDS011;4604;48.616;9.548;2022-08-11T02:52:22;3.20;;;2.90;;
9138;SDS011;4604;48.616;9.548;2022-08-11T02:55:09;3.47;;;3.17;;
9138;SDS011;4604;48.616;9.548;2022-08-11T02:57:46;5.63;;;3.28;;
9138;SDS011;4604;48.616;9.548;2022-08-11T03:00:19;4.70;;;3.30;;
9138;SDS011;4604;48.616;9.548;2022-08-11T03:02:49;4.10;;;3.47;;
9138;SDS011;4604;48.616;9.548;2022-08-11T03:05:32;3.95;;;3.38;;
9138;SDS011;4604;48.616;9.548;2022-08-11T03:08:10;3.90;;;3.15;;
9138;SDS011;4604;48.616;9.548;2022-08-11T03:10:58;3.85;;;3.45;;
9138;SDS011;4604;48.616;9.548;2022-08-11T03:13:50;4.35;;;2.90;;
9138;SDS011;4604;48.616;9.548;2022-08-11T03:16:45;5.03;;;3.03;;
9138;SDS011;4604;48.616;9.548;2022-08-11T03:19:25;7.63;;;3.50;;
9138;SDS011;4604;48.616;9.548;2022-08-11T03:21:59;3.45;;;3.15;;
9138;SDS011;4604;48.616;9.548;2022-08-11T03:24:36;4.82;;;3.42;;
9138;SDS011;4604;48.616;9.548;2022-08-11T03:27:20;4.03;;;3.20;;
9138;SDS011;4604;48.616;9.548;2022-08-11T03:30:03;5.07;;;3.42;;
9138;SDS011;4604;48.616;9.548;2022-08-11T03:32:39;3.65;;;3.10;;
9138;SDS011;4604;48.616;9.548;2022-08-11T03:35:36;4.80;;;2.92;;
9138;SDS011;4604;48.616;9.548;2022-08-11T03:38:10;4.65;;;3.17;;
9138;SDS011;4604;48.616;9.548;2022-08-11T03:40:47;3.78;;;3.03;;
9138;SDS011;4604;48.616;9.548;2022-08-11T03:43:53;3.95;;;3.20;;
9138;SDS011;4604;48.616;9.548;2022-08-11T03:46:33;5.38;;;3.13;;
9138;SDS011;4604;48.616;9.548;2022-08-11T03:49:16;4.20;;;3.10;;
9138;SDS011;4604;48.616;9.548;2022-08-11T03:51:55;4.85;;;3.00;;
9138;SDS011;4604;48.616;9.548;2022-08-11T03:54:34;3.80;;;3.50;;
9138;SDS011;4604;48.616;9.548;2022-08-11T04:00:22;4.93;;;3.45;;
9138;SDS011;4604;48.616;9.548;2022-08-11T04:03:23;3.70;;;3.30;;
9138;SDS011;4604;48.616;9.548;2022-08-11T04:06:12;3.60;;;3.28;;
9138;SDS011;4604;48.616;9.548;2022-08-11T04:12:13;4.38;;;3.50;;
9138;SDS011;4604;48.616;9.548;2022-08-11T04:24:45;5.90;;;3.50;;
9138;SDS011;4604;48.616;9.548;2022-08-11T04:27:46;4.93;;;3.53;;
9138;SDS011;4604;48.616;9.548;2022-08-11T04:30:44;3.85;;;3.45;;
9138;SDS011;4604;48.616;9.548;2022-08-11T04:33:37;6.95;;;3.40;;
9138;SDS011;4604;48.616;9.548;2022-08-11T04:36:32;6.63;;;3.60;;
9138;SDS011;4604;48.616;9.548;2022-08-11T04:39:31;4.07;;;3.20;;
9138;SDS011;4604;48.616;9.548;2022-08-11T04:45:35;5.80;;;4.45;;
9138;SDS011;4604;48.616;9.548;2022-08-11T04:55:25;4.70;;;4.05;;
9138;SDS011;4604;48.616;9.548;2022-08-11T04:58:23;4.25;;;3.85;;
9138;SDS011;4604;48.616;9.548;2022-08-11T05:01:29;4.55;;;3.97;;
9138;SDS011;4604;48.616;9.548;2022-08-11T05:04:11;4.20;;;3.80;;
9138;SDS011;4604;48.616;9.548;2022-08-11T05:07:22;4.28;;;3.80;;
9138;SDS011;4604;48.616;9.548;2022-08-11T05:10:11;5.45;;;3.38;;
9138;SDS011;4604;48.616;9.548;2022-08-11T05:12:47;5.00;;;3.63;;
9138;SDS011;4604;48.616;9.548;2022-08-11T05:15:18;6.18;;;3.63;;
9138;SDS011;4604;48.616;9.548;2022-08-11T05:18:12;4.20;;;3.75;;
9138;SDS011;4604;48.616;9.548;2022-08-11T05:21:11;5.30;;;3.60;;
9138;SDS011;4604;48.616;9.548;2022-08-11T05:23:56;4.18;;;3.67;;
9138;SDS011;4604;48.616;9.548;2022-08-11T05:26:47;5.88;;;3.78;;
9138;SDS011;4604;48.616;9.548;2022-08-11T05:29:39;4.20;;;3.80;;
9138;SDS011;4604;48.616;9.548;2022-08-11T05:32:27;8.98;;;3.97;;
9138;SDS011;4604;48.616;9.548;2022-08-11T05:35:16;5.43;;;3.88;;
9138;SDS011;4604;48.616;9.548;2022-08-11T05:37:51;6.75;;;3.60;;
9138;SDS011;4604;48.616;9.548;2022-08-11T05:40:38;4.18;;;3.78;;
9138;SDS011;4604;48.616;9.548;2022-08-11T05:43:30;4.13;;;3.72;;
9138;SDS011;4604;48.616;9.548;2022-08-11T05:46:18;6.50;;;3.75;;
9138;SDS011;4604;48.616;9.548;2022-08-11T05:49:07;6.30;;;3.65;;
9138;SDS011;4604;48.616;9.548;2022-08-11T05:51:52;7.47;;;3.47;;
9138;SDS011;4604;48.616;9.548;2022-08-11T05:54:36;5.35;;;3.95;;
9138;SDS011;4604;48.616;9.548;2022-08-11T05:57:21;4.78;;;3.70;;
9138;SDS011;4604;48.616;9.548;2022-08-11T05:59:52;7.05;;;3.53;;
9138;SDS011;4604;48.616;9.548;2022-08-11T06:02:27;4.65;;;3.70;;
9138;SDS011;4604;48.616;9.548;2022-08-11T06:04:55;6.00;;;3.72;;
9138;SDS011;4604;48.616;9.548;2022-08-11T06:07:25;4.10;;;3.70;;
9138;SDS011;4604;48.616;9.548;2022-08-11T06:09:53;4.15;;;3.72;;
9138;SDS011;4604;48.616;9.548;2022-08-11T06:12:21;4.90;;;3.42;;
9138;SDS011;4604;48.616;9.548;2022-08-11T06:14:52;6.80;;;4.00;;
9138;SDS011;4604;48.616;9.548;2022-08-11T06:17:21;4.45;;;3.60;;
9138;SDS011;4604;48.616;9.548;2022-08-11T06:19:50;4.60;;;3.70;;
9138;SDS011;4604;48.616;9.548;2022-08-11T06:22:25;4.03;;;3.65;;
9138;SDS011;4604;48.616;9.548;2022-08-11T06:24:54;4.18;;;3.47;;
9138;SDS011;4604;48.616;9.548;2022-08-11T06:27:22;6.60;;;3.63;;
9138;SDS011;4604;48.616;9.548;2022-08-11T06:29:50;4.57;;;3.72;;
9138;SDS011;4604;48.616;9.548;2022-08-11T06:32:19;5.07;;;3.80;;
9138;SDS011;4604;48.616;9.548;2022-08-11T06:35:04;5.65;;;3.70;;
9138;SDS011;4604;48.616;9.548;2022-08-11T06:37:44;6.40;;;3.55;;
9138;SDS011;4604;48.616;9.548;2022-08-11T06:40:25;3.75;;;3.35;;
9138;SDS011;4604;48.616;9.548;2022-08-11T06:43:00;7.15;;;3.53;;
9138;SDS011;4604;48.616;9.548;2022-08-11T06:45:36;7.13;;;3.72;;
9138;SDS011;4604;48.616;9.548;2022-08-11T06:48:14;6.45;;;3.50;;
9138;SDS011;4604;48.616;9.548;2022-08-11T06:50:48;5.20;;;3.90;;
9138;SDS011;4604;48.616;9.548;2022-08-11T06:53:34;4.38;;;3.97;;
9138;SDS011;4604;48.616;9.548;2022-08-11T06:56:04;5.20;;;3.70;;
9138;SDS011;4604;48.616;9.548;2022-08-11T06:58:51;5.38;;;3.63;;
9138;SDS011;4604;48.616;9.548;2022-08-11T07:01:39;3.38;;;3.08;;
9138;SDS011;4604;48.616;9.548;2022-08-11T07:04:12;6.43;;;3.70;;
9138;SDS011;4604;48.616;9.548;2022-08-11T07:06:49;6.43;;;3.65;;
9138;SDS011;4604;48.616;9.548;2022-08-11T07:10:02;5.93;;;3.80;;
9138;SDS011;4604;48.616;9.548;2022-08-11T07:13:03;4.40;;;3.50;;
9138;SDS011;4604;48.616;9.548;2022-08-11T07:15:49;3.40;;;3.10;;
9138;SDS011;4604;48.616;9.548;2022-08-11T07:18:22;3.90;;;3.50;;
9138;SDS011;4604;48.616;9.548;2022-08-11T07:21:11;4.05;;;3.17;;
9138;SDS011;4604;48.616;9.548;2022-08-11T07:24:01;9.02;;;3.60;;
9138;SDS011;4604;48.616;9.548;2022-08-11T07:26:51;3.35;;;3.05;;
9138;SDS011;4604;48.616;9.548;2022-08-11T07:29:38;4.93;;;3.75;;
9138;SDS011;4604;48.616;9.548;2022-08-11T07:32:12;4.93;;;3.60;;
9138;SDS011;4604;48.616;9.548;2022-08-11T07:34:46;6.38;;;3.72;;
9138;SDS011;4604;48.616;9.548;2022-08-11T07:37:18;6.95;;;3.42;;
9138;SDS011;4604;48.616;9.548;2022-08-11T07:39:47;4.03;;;3.40;;
9138;SDS011;4604;48.616;9.548;2022-08-11T07:42:16;7.63;;;3.60;;
9138;SDS011;4604;48.616;9.548;2022-08-11T07:44:48;4.00;;;3.60;;
9138;SDS011;4604;48.616;9.548;2022-08-11T07:47:35;3.72;;;3.42;;
9138;SDS011;4604;48.616;9.548;2022-08-11T07:50:20;5.88;;;3.67;;
9138;SDS011;4604;48.616;9.548;2022-08-11T07:53:05;4.13;;;3.22;;
9138;SDS011;4604;48.616;9.548;2022-08-11T07:55:34;5.40;;;3.63;;
9138;SDS011;4604;48.616;9.548;2022-08-11T07:58:02;4.57;;;3.40;;
9138;SDS011;4604;48.616;9.548;2022-08-11T08:00:48;4.22;;;3.65;;
9138;SDS011;4604;48.616;9.548;2022-08-11T08:03:35;5.85;;;3.67;;
9138;SDS011;4604;48.616;9.548;2022-08-11T08:06:20;3.85;;;3.45;;
9138;SDS011;4604;48.616;9.548;2022-08-11T08:09:05;4.90;;;3.40;;
9138;SDS011;4604;48.616;9.548;2022-08-11T08:11:52;4.05;;;3.47;;
9138;SDS011;4604;48.616;9.548;2022-08-11T08:14:37;4.57;;;3.88;;
9138;SDS011;4604;48.616;9.548;2022-08-11T08:17:21;3.70;;;3.30;;
9138;SDS011;4604;48.616;9.548;2022-08-11T08:20:07;4.07;;;3.67;;
9138;SDS011;4604;48.616;9.548;2022-08-11T08:22:37;5.10;;;3.40;;
9138;SDS011;4604;48.616;9.548;2022-08-11T08:25:05;4.72;;;2.95;;
9138;SDS011;4604;48.616;9.548;2022-08-11T08:27:34;6.28;;;3.15;;
9138;SDS011;4604;48.616;9.548;2022-08-11T08:30:04;4.00;;;3.38;;
9138;SDS011;4604;48.616;9.548;2022-08-11T08:32:49;5.57;;;3.20;;
9138;SDS011;4604;48.616;9.548;2022-08-11T08:35:17;10.23;;;3.30;;
9138;SDS011;4604;48.616;9.548;2022-08-11T08:37:44;5.70;;;3.42;;
9138;SDS011;4604;48.616;9.548;2022-08-11T08:40:11;4.15;;;3.33;;
9138;SDS011;4604;48.616;9.548;2022-08-11T08:42:40;8.40;;;3.30;;
9138;SDS011;4604;48.616;9.548;2022-08-11T08:45:12;3.70;;;3.35;;
9138;SDS011;4604;48.616;9.548;2022-08-11T08:47:44;4.10;;;3.30;;
9138;SDS011;4604;48.616;9.548;2022-08-11T08:50:13;3.60;;;2.70;;
9138;SDS011;4604;48.616;9.548;2022-08-11T08:52:44;4.28;;;3.25;;
9138;SDS011;4604;48.616;9.548;2022-08-11T08:55:16;4.18;;;3.35;;
9138;SDS011;4604;48.616;9.548;2022-08-11T08:57:47;7.82;;;3.15;;
9138;SDS011;4604;48.616;9.548;2022-08-11T09:00:15;4.55;;;3.05;;
9138;SDS011;4604;48.616;9.548;2022-08-11T09:02:43;4.45;;;3.13;;
9138;SDS011;4604;48.616;9.548;2022-08-11T09:05:11;3.20;;;2.90;;
9138;SDS011;4604;48.616;9.548;2022-08-11T09:07:38;4.63;;;2.80;;
9138;SDS011;4604;48.616;9.548;2022-08-11T09:10:07;3.40;;;3.08;;
9138;SDS011;4604;48.616;9.548;2022-08-11T09:12:36;4.63;;;2.80;;
9138;SDS011;4604;48.616;9.548;2022-08-11T09:15:08;2.88;;;2.67;;
9138;SDS011;4604;48.616;9.548;2022-08-11T09:17:37;2.88;;;2.67;;
9138;SDS011;4604;48.616;9.548;2022-08-11T09:20:06;4.30;;;2.88;;
9138;SDS011;4604;48.616;9.548;2022-08-11T09:22:37;2.85;;;2.58;;
9138;SDS011;4604;48.616;9.548;2022-08-11T09:25:35;3.10;;;2.45;;
9138;SDS011;4604;48.616;9.548;2022-08-11T09:28:20;3.05;;;2.63;;
9138;SDS011;4604;48.616;9.548;2022-08-11T09:30:49;3.80;;;2.58;;
9138;SDS011;4604;48.616;9.548;2022-08-11T09:33:19;3.88;;;2.70;;
9138;SDS011;4604;48.616;9.548;2022-08-11T09:35:48;3.15;;;2.72;;
9138;SDS011;4604;48.616;9.548;2022-08-11T09:38:17;6.03;;;2.80;;
9138;SDS011;4604;48.616;9.548;2022-08-11T09:41:03;3.83;;;2.47;;
9138;SDS011;4604;48.616;9.548;2022-08-11T09:43:33;3.15;;;2.65;;
9138;SDS011;4604;48.616;9.548;2022-08-11T09:46:23;4.18;;;2.72;;
9138;SDS011;4604;48.616;9.548;2022-08-11T09:48:54;3.58;;;2.60;;
9138;SDS011;4604;48.616;9.548;2022-08-11T09:51:23;5.43;;;2.70;;
9138;SDS011;4604;48.616;9.548;2022-08-11T09:53:50;3.55;;;2.45;;
9138;SDS011;4604;48.616;9.548;2022-08-11T09:56:19;3.05;;;2.75;;
9138;SDS011;4604;48.616;9.548;2022-08-11T09:59:07;4.68;;;2.60;;
9138;SDS011;4604;48.616;9.548;2022-08-11T10:01:38;2.63;;;2.42;;
9138;SDS011;4604;48.616;9.548;2022-08-11T10:04:07;2.47;;;2.28;;
9138;SDS011;4604;48.616;9.548;2022-08-11T10:06:39;4.25;;;2.50;;
9138;SDS011;4604;48.616;9.548;2022-08-11T10:09:24;3.65;;;2.40;;
9138;SDS011;4604;48.616;9.548;2022-08-11T10:11:56;4.40;;;2.67;;
9138;SDS011;4604;48.616;9.548;2022-08-11T10:14:27;4.05;;;2.30;;
9138;SDS011;4604;48.616;9.548;2022-08-11T10:17:17;4.22;;;2.47;;
9138;SDS011;4604;48.616;9.548;2022-08-11T10:19:47;4.40;;;2.70;;
9138;SDS011;4604;48.616;9.548;2022-08-11T10:22:16;3.22;;;2.22;;
9138;SDS011;4604;48.616;9.548;2022-08-11T10:25:01;3.20;;;2.13;;
9138;SDS011;4604;48.616;9.548;2022-08-11T10:27:47;3.00;;;2.40;;
9138;SDS011;4604;48.616;9.548;2022-08-11T10:30:20;3.47;;;2.40;;
9138;SDS011;4604;48.616;9.548;2022-08-11T10:33:08;4.38;;;2.20;;
9138;SDS011;4604;48.616;9.548;2022-08-11T10:35:52;3.05;;;2.40;;
9138;SDS011;4604;48.616;9.548;2022-08-11T10:38:19;2.63;;;2.35;;
9138;SDS011;4604;48.616;9.548;2022-08-11T10:40:46;2.35;;;2.15;;
9138;SDS011;4604;48.616;9.548;2022-08-11T10:43:36;4.88;;;2.47;;
9138;SDS011;4604;48.616;9.548;2022-08-11T10:46:04;3.85;;;2.75;;
9138;SDS011;4604;48.616;9.548;2022-08-11T10:48:53;2.55;;;2.25;;
9138;SDS011;4604;48.616;9.548;2022-08-11T10:51:21;2.70;;;2.50;;
9138;SDS011;4604;48.616;9.548;2022-08-11T10:54:07;4.05;;;2.50;;
9138;SDS011;4604;48.616;9.548;2022-08-11T10:56:52;3.03;;;2.10;;
9138;SDS011;4604;48.616;9.548;2022-08-11T10:59:37;3.65;;;2.10;;
9138;SDS011;4604;48.616;9.548;2022-08-11T11:02:04;2.42;;;2.10;;
9138;SDS011;4604;48.616;9.548;2022-08-11T11:04:36;2.50;;;2.20;;
9138;SDS011;4604;48.616;9.548;2022-08-11T11:07:15;2.45;;;2.05;;
9138;SDS011;4604;48.616;9.548;2022-08-11T11:09:48;3.70;;;2.22;;
9138;SDS011;4604;48.616;9.548;2022-08-11T11:12:22;6.18;;;2.00;;
9138;SDS011;4604;48.616;9.548;2022-08-11T11:15:08;2.65;;;1.98;;
9138;SDS011;4604;48.616;9.548;2022-08-11T11:17:55;2.00;;;1.90;;
9138;SDS011;4604;48.616;9.548;2022-08-11T11:20:32;2.38;;;2.17;;
9138;SDS011;4604;48.616;9.548;2022-08-11T11:23:04;2.53;;;1.92;;
9138;SDS011;4604;48.616;9.548;2022-08-11T11:25:35;2.85;;;2.10;;
9138;SDS011;4604;48.616;9.548;2022-08-11T11:28:33;3.45;;;2.30;;
9138;SDS011;4604;48.616;9.548;2022-08-11T11:31:18;2.58;;;2.38;;
9138;SDS011;4604;48.616;9.548;2022-08-11T11:34:00;6.07;;;2.47;;
9138;SDS011;4604;48.616;9.548;2022-08-11T11:36:45;2.22;;;1.98;;
9138;SDS011;4604;48.616;9.548;2022-08-11T11:39:15;2.30;;;2.10;;
9138;SDS011;4604;48.616;9.548;2022-08-11T11:41:44;3.90;;;2.25;;
9138;SDS011;4604;48.616;9.548;2022-08-11T11:44:11;2.60;;;2.40;;
9138;SDS011;4604;48.616;9.548;2022-08-11T11:46:39;6.05;;;2.47;;
9138;SDS011;4604;48.616;9.548;2022-08-11T11:49:09;2.50;;;2.30;;
9138;SDS011;4604;48.616;9.548;2022-08-11T11:51:37;4.72;;;2.20;;
9138;SDS011;4604;48.616;9.548;2022-08-11T11:54:06;3.45;;;2.30;;
9138;SDS011;4604;48.616;9.548;2022-08-11T11:56:33;2.50;;;2.30;;
9138;SDS011;4604;48.616;9.548;2022-08-11T11:59:01;2.47;;;2.28;;
9138;SDS011;4604;48.616;9.548;2022-08-11T12:01:46;2.28;;;2.08;;
9138;SDS011;4604;48.616;9.548;2022-08-11T12:04:13;2.40;;;2.20;;
9138;SDS011;4604;48.616;9.548;2022-08-11T12:06:42;2.60;;;2.40;;
9138;SDS011;4604;48.616;9.548;2022-08-11T12:09:11;2.83;;;2.30;;
9138;SDS011;4604;48.616;9.548;2022-08-11T12:11:44;2.40;;;2.20;;
9138;SDS011;4604;48.616;9.548;2022-08-11T12:14:29;2.47;;;2.10;;
9138;SDS011;4604;48.616;9.548;2022-08-11T12:16:56;3.58;;;2.30;;
9138;SDS011;4604;48.616;9.548;2022-08-11T12:19:24;3.08;;;2.10;;
9138;SDS011;4604;48.616;9.548;2022-08-11T12:21:53;4.95;;;2.40;;
9138;SDS011;4604;48.616;9.548;2022-08-11T12:24:48;3.83;;;2.30;;
9138;SDS011;4604;48.616;9.548;2022-08-11T12:27:32;2.92;;;2.25;;
9138;SDS011;4604;48.616;9.548;2022-08-11T12:30:00;2.65;;;2.45;;
9138;SDS011;4604;48.616;9.548;2022-08-11T12:32:33;2.05;;;1.95;;
9138;SDS011;4604;48.616;9.548;2022-08-11T12:35:03;2.55;;;1.88;;
9138;SDS011;4604;48.616;9.548;2022-08-11T12:37:31;3.30;;;2.40;;
9138;SDS011;4604;48.616;9.548;2022-08-11T12:40:06;2.53;;;2.20;;
9138;SDS011;4604;48.616;9.548;2022-08-11T12:42:53;2.85;;;2.30;;
9138;SDS011;4604;48.616;9.548;2022-08-11T12:45:38;2.53;;;2.33;;
9138;SDS011;4604;48.616;9.548;2022-08-11T12:48:07;2.25;;;2.08;;
9138;SDS011;4604;48.616;9.548;2022-08-11T12:50:56;3.83;;;2.50;;
9138;SDS011;4604;48.616;9.548;2022-08-11T12:53:48;2.33;;;2.13;;
9138;SDS011;4604;48.616;9.548;2022-08-11T12:56:20;2.20;;;2.00;;
9138;SDS011;4604;48.616;9.548;2022-08-11T12:59:06;2.83;;;2.13;;
9138;SDS011;4604;48.616;9.548;2022-08-11T13:01:51;2.10;;;1.90;;
9138;SDS011;4604;48.616;9.548;2022-08-11T13:04:36;2.40;;;2.20;;
9138;SDS011;4604;48.616;9.548;2022-08-11T13:07:23;4.85;;;2.55;;
9138;SDS011;4604;48.616;9.548;2022-08-11T13:09:51;2.08;;;1.98;;
9138;SDS011;4604;48.616;9.548;2022-08-11T13:12:20;2.13;;;2.00;;
9138;SDS011;4604;48.616;9.548;2022-08-11T13:15:07;4.35;;;2.58;;
9138;SDS011;4604;48.616;9.548;2022-08-11T13:17:36;4.97;;;2.25;;
9138;SDS011;4604;48.616;9.548;2022-08-11T13:20:05;2.50;;;2.30;;
9138;SDS011;4604;48.616;9.548;2022-08-11T13:22:34;3.08;;;2.22;;
9138;SDS011;4604;48.616;9.548;2022-08-11T13:25:02;2.42;;;2.20;;
9138;SDS011;4604;48.616;9.548;2022-08-11T13:27:32;2.72;;;2.25;;
9138;SDS011;4604;48.616;9.548;2022-08-11T13:30:00;2.40;;;2.20;;
9138;SDS011;4604;48.616;9.548;2022-08-11T13:32:59;3.03;;;2.50;;
9138;SDS011;4604;48.616;9.548;2022-08-11T13:35:27;2.80;;;2.28;;
9138;SDS011;4604;48.616;9.548;2022-08-11T13:37:55;2.95;;;2.20;;
9138;SDS011;4604;48.616;9.548;2022-08-11T13:40:23;2.63;;;2.10;;
9138;SDS011;4604;48.616;9.548;2022-08-11T13:42:52;1.90;;;1.80;;
9138;SDS011;4604;48.616;9.548;2022-08-11T13:45:19;2.40;;;2.20;;
9138;SDS011;4604;48.616;9.548;2022-08-11T13:47:49;3.30;;;2.28;;
9138;SDS011;4604;48.616;9.548;2022-08-11T13:50:22;2.20;;;2.00;;
9138;SDS011;4604;48.616;9.548;2022-08-11T13:53:10;2.33;;;2.13;;
9138;SDS011;4604;48.616;9.548;2022-08-11T13:55:38;2.25;;;2.10;;
9138;SDS011;4604;48.616;9.548;2022-08-11T13:58:08;2.85;;;2.30;;
9138;SDS011;4604;48.616;9.548;2022-08-11T14:00:36;3.80;;;2.42;;
9138;SDS011;4604;48.616;9.548;2022-08-11T14:03:03;2.78;;;2.10;;
9138;SDS011;4604;48.616;9.548;2022-08-11T14:05:36;2.40;;;2.20;;
9138;SDS011;4604;48.616;9.548;2022-08-11T14:08:07;3.13;;;2.22;;
9138;SDS011;4604;48.616;9.548;2022-08-11T14:10:37;3.75;;;2.30;;
9138;SDS011;4604;48.616;9.548;2022-08-11T14:13:06;2.45;;;2.30;;
9138;SDS011;4604;48.616;9.548;2022-08-11T14:15:55;2.63;;;2.30;;
9138;SDS011;4604;48.616;9.548;2022-08-11T14:18:30;4.32;;;2.25;;
9138;SDS011;4604;48.616;9.548;2022-08-11T14:20:58;3.75;;;2.10;;
9138;SDS011;4604;48.616;9.548;2022-08-11T14:23:44;3.53;;;2.10;;
9138;SDS011;4604;48.616;9.548;2022-08-11T14:26:14;2.42;;;2.22;;
9138;SDS011;4604;48.616;9.548;2022-08-11T14:28:58;2.92;;;2.22;;
9138;SDS011;4604;48.616;9.548;2022-08-11T14:31:28;2.05;;;1.90;;
9138;SDS011;4604;48.616;9.548;2022-08-11T14:33:59;4.20;;;2.00;;
9138;SDS011;4604;48.616;9.548;2022-08-11T14:36:29;2.30;;;2.10;;
9138;SDS011;4604;48.616;9.548;2022-08-11T14:39:00;2.30;;;2.10;;
9138;SDS011;4604;48.616;9.548;2022-08-11T14:41:29;2.55;;;2.35;;
9138;SDS011;4604;48.616;9.548;2022-08-11T14:44:16;4.53;;;2.25;;
9138;SDS011;4604;48.616;9.548;2022-08-11T14:47:01;2.50;;;2.00;;
9138;SDS011;4604;48.616;9.548;2022-08-11T14:49:29;2.97;;;2.20;;
9138;SDS011;4604;48.616;9.548;2022-08-11T14:51:59;3.28;;;2.20;;
9138;SDS011;4604;48.616;9.548;2022-08-11T14:54:28;2.90;;;2.60;;
9138;SDS011;4604;48.616;9.548;2022-08-11T14:57:14;3.97;;;2.10;;
9138;SDS011;4604;48.616;9.548;2022-08-11T14:59:43;2.33;;;1.80;;
9138;SDS011;4604;48.616;9.548;2022-08-11T15:02:12;2.33;;;2.15;;
9138;SDS011;4604;48.616;9.548;2022-08-11T15:04:57;3.42;;;2.20;;
9138;SDS011;4604;48.616;9.548;2022-08-11T15:07:26;3.78;;;2.13;;
9138;SDS011;4604;48.616;9.548;2022-08-11T15:09:55;2.83;;;2.00;;
9138;SDS011;4604;48.616;9.548;2022-08-11T15:12:23;3.15;;;2.10;;
9138;SDS011;4604;48.616;9.548;2022-08-11T15:14:52;2.30;;;2.10;;
9138;SDS011;4604;48.616;9.548;2022-08-11T15:17:38;3.78;;;2.00;;
9138;SDS011;4604;48.616;9.548;2022-08-11T15:20:06;2.47;;;2.28;;
9138;SDS011;4604;48.616;9.548;2022-08-11T15:22:53;3.67;;;2.17;;
9138;SDS011;4604;48.616;9.548;2022-08-11T15:25:38;2.20;;;2.00;;
9138;SDS011;4604;48.616;9.548;2022-08-11T15:28:08;2.67;;;2.20;;
9138;SDS011;4604;48.616;9.548;2022-08-11T15:30:55;3.55;;;2.22;;
9138;SDS011;4604;48.616;9.548;2022-08-11T15:33:43;2.60;;;2.22;;
9138;SDS011;4604;48.616;9.548;2022-08-11T15:36:29;4.63;;;2.00;;
9138;SDS011;4604;48.616;9.548;2022-08-11T15:39:16;2.40;;;2.20;;
9138;SDS011;4604;48.616;9.548;2022-08-11T15:41:47;2.50;;;2.30;;
9138;SDS011;4604;48.616;9.548;2022-08-11T15:44:36;5.78;;;2.20;;
9138;SDS011;4604;48.616;9.548;2022-08-11T15:47:26;2.33;;;2.13;;
9138;SDS011;4604;48.616;9.548;2022-08-11T15:49:58;3.35;;;1.85;;
9138;SDS011;4604;48.616;9.548;2022-08-11T15:52:30;2.13;;;2.00;;
9138;SDS011;4604;48.616;9.548;2022-08-11T15:55:03;2.00;;;1.90;;
9138;SDS011;4604;48.616;9.548;2022-08-11T15:57:33;2.88;;;2.13;;
9138;SDS011;4604;48.616;9.548;2022-08-11T16:00:18;2.30;;;2.10;;
9138;SDS011;4604;48.616;9.548;2022-08-11T16:03:04;2.92;;;2.00;;
9138;SDS011;4604;48.616;9.548;2022-08-11T16:05:51;2.40;;;1.90;;
9138;SDS011;4604;48.616;9.548;2022-08-11T16:08:18;2.25;;;2.05;;
9138;SDS011;4604;48.616;9.548;2022-08-11T16:10:47;3.38;;;2.10;;
9138;SDS011;4604;48.616;9.548;2022-08-11T16:13:15;4.55;;;2.15;;
9138;SDS011;4604;48.616;9.548;2022-08-11T16:16:00;2.85;;;2.33;;
9138;SDS011;4604;48.616;9.548;2022-08-11T16:18:44;2.42;;;2.03;;
9138;SDS011;4604;48.616;9.548;2022-08-11T16:21:17;4.43;;;2.40;;
9138;SDS011;4604;48.616;9.548;2022-08-11T16:23:48;2.67;;;1.85;;
9138;SDS011;4604;48.616;9.548;2022-08-11T16:26:19;3.58;;;2.05;;
9138;SDS011;4604;48.616;9.548;2022-08-11T16:28:48;2.63;;;2.05;;
9138;SDS011;4604;48.616;9.548;2022-08-11T16:31:18;2.90;;;2.05;;
9138;SDS011;4604;48.616;9.548;2022-08-11T16:33:48;2.35;;;2.10;;
9138;SDS011;4604;48.616;9.548;2022-08-11T16:36:16;2.85;;;1.92;;
9138;SDS011;4604;48.616;9.548;2022-08-11T16:39:02;2.75;;;1.80;;
9138;SDS011;4604;48.616;9.548;2022-08-11T16:41:31;6.53;;;2.00;;
9138;SDS011;4604;48.616;9.548;2022-08-11T16:44:18;3.40;;;1.73;;
9138;SDS011;4604;48.616;9.548;2022-08-11T16:47:04;3.97;;;2.20;;
9138;SDS011;4604;48.616;9.548;2022-08-11T16:49:34;7.28;;;1.90;;
9138;SDS011;4604;48.616;9.548;2022-08-11T16:52:03;2.78;;;2.17;;
9138;SDS011;4604;48.616;9.548;2022-08-11T16:54:35;1.92;;;1.80;;
9138;SDS011;4604;48.616;9.548;2022-08-11T16:57:03;5.43;;;2.20;;
9138;SDS011;4604;48.616;9.548;2022-08-11T16:59:51;2.38;;;2.13;;
9138;SDS011;4604;48.616;9.548;2022-08-11T17:02:20;2.08;;;1.80;;
9138;SDS011;4604;48.616;9.548;2022-08-11T17:05:10;2.35;;;2.03;;
9138;SDS011;4604;48.616;9.548;2022-08-11T17:07:59;2.00;;;1.80;;
9138;SDS011;4604;48.616;9.548;2022-08-11T17:10:45;4.57;;;2.17;;
9138;SDS011;4604;48.616;9.548;2022-08-11T17:13:34;1.90;;;1.80;;
9138;SDS011;4604;48.616;9.548;2022-08-11T17:16:04;2.40;;;2.08;;
9138;SDS011;4604;48.616;9.548;2022-08-11T17:18:38;2.00;;;1.80;;
9138;SDS011;4604;48.616;9.548;2022-08-11T17:21:13;2.17;;;2.00;;